KFIN

Flagler Executive Airport

Palm Coast, Florida, USA
METAR KFIN 210655Z AUTO 12005KT 7SM SCT120 23/22 A3008 RMK AO2 T02340223
Observed Flight Rules
May-21 @ 06:55 UTC (22 minutes ago) Visual Flight Rules
Wind Visibility Clouds
120° at 5 knots 7 miles
  • Scattered at 12,000' AGL
Temperatures Readings
Current 23°C / 73°F
Dewpoint 22°C / 72°F
Humidity 94%
Altimeter 30.08" Hg
Pressure 1019 hPa
Elevation 10
METAR KFIN 210655Z AUTO 12005KT 7SM SCT120 23/22 A3008 RMK AO2 T02340223
Observed Flight Rules
May-21 @ 06:55 UTC
(22 minutes ago)
VFR
Wind Visibility
120° at 5 knots 7 miles
Clouds
  • Scattered at 12,000' AGL
Temperature Dewpoint
23°C / 73°F 22°C / 72°F
Humidity Altimeter Pressure
94% 30.08" Hg 1019 hPa